Time;durP1;ratioP1;P1;durP2;ratioP2;P2;SDS_P1;SDS_P2;PMS_P1;PMS_P2;Temp;Humidity;BMP_temperature;BMP_pressure;BME280_temperature;BME280_humidity;BME280_pressure;Samples;Min_cycle;Max_cycle;Signal;HPM_P1;HPM_P2
2023/04/15 00:00:22;;;;;;;4.70;2.60;;;;;;;8.25;81.11;100772.94;5069715;28;20041;-35
2023/04/15 00:02:47;;;;;;;5.38;2.90;;;;;;;8.30;81.43;100781.19;5069779;28;20024;-35
2023/04/15 00:05:13;;;;;;;6.53;2.80;;;;;;;8.17;82.14;100765.94;5069841;28;20036;-35
2023/04/15 00:07:39;;;;;;;5.47;2.60;;;;;;;8.25;81.65;100781.03;5070001;28;20074;-35
2023/04/15 00:10:05;;;;;;;5.28;2.60;;;;;;;8.26;82.54;100782.66;5069365;28;20036;-35
2023/04/15 00:12:31;;;;;;;7.00;2.85;;;;;;;8.23;82.13;100778.53;5061514;28;20021;-35
2023/04/15 00:14:57;;;;;;;7.05;2.78;;;;;;;8.20;82.65;100778.97;5056335;28;20025;-35
2023/04/15 00:17:23;;;;;;;7.38;2.60;;;;;;;8.22;82.30;100776.06;5056295;28;20025;-35
2023/04/15 00:19:48;;;;;;;7.40;2.65;;;;;;;8.13;81.91;100772.78;5055948;28;20025;-35
2023/04/15 00:22:14;;;;;;;4.40;2.47;;;;;;;8.17;82.12;100774.00;5056284;28;20021;-35
2023/04/15 00:24:39;;;;;;;9.30;3.87;;;;;;;8.09;81.43;100773.44;5055873;28;20365;-35
2023/04/15 00:27:05;;;;;;;6.65;3.00;;;;;;;8.15;81.88;100777.94;5055858;28;20064;-35
2023/04/15 00:29:30;;;;;;;5.00;2.70;;;;;;;8.16;81.34;100776.94;5056106;28;20021;-35
2023/04/15 00:31:56;;;;;;;9.07;3.80;;;;;;;8.14;81.63;100762.84;5056636;28;20056;-36
2023/04/15 00:34:22;;;;;;;4.43;2.92;;;;;;;8.17;81.99;100781.28;5056470;28;20400;-35
2023/04/15 00:36:49;;;;;;;7.50;3.20;;;;;;;8.19;81.13;100779.16;5056480;28;20043;-35
2023/04/15 00:39:15;;;;;;;;;;;;;;;8.24;80.18;100776.66;5056327;28;20017;-35
2023/04/15 00:41:40;;;;;;;6.93;3.05;;;;;;;8.14;81.67;100784.38;5056340;28;19908;-35
2023/04/15 00:44:06;;;;;;;5.40;2.85;;;;;;;8.12;81.67;100771.13;5056360;28;20031;-35
2023/04/15 00:46:37;;;;;;;6.80;2.97;;;;;;;8.15;81.51;100783.34;5056077;28;20025;-35
2023/04/15 00:49:05;;;;;;;7.07;3.50;;;;;;;8.18;81.19;100786.44;5056027;28;20025;-35
2023/04/15 00:51:32;;;;;;;6.45;3.00;;;;;;;8.15;81.55;100784.19;5056525;28;20416;-35
2023/04/15 00:53:58;;;;;;;6.88;2.88;;;;;;;8.15;82.39;100777.94;5055271;28;20028;-35
2023/04/15 00:56:25;;;;;;;6.18;2.88;;;;;;;8.09;82.16;100781.50;5056251;28;20028;-35
2023/04/15 00:58:51;;;;;;;6.45;3.13;;;;;;;8.10;82.81;100780.47;5055514;28;20064;-35
2023/04/15 01:01:21;;;;;;;8.18;3.25;;;;;;;8.08;82.36;100786.06;5055517;28;20072;-35
2023/04/15 01:03:49;;;;;;;6.38;2.90;;;;;;;8.03;82.26;100771.63;5055094;28;20017;-35
2023/04/15 01:06:14;;;;;;;6.15;3.00;;;;;;;8.05;81.92;100775.72;5056233;28;20365;-35
2023/04/15 01:08:40;;;;;;;7.07;2.83;;;;;;;7.95;82.31;100768.16;5055672;28;20032;-36
2023/04/15 01:11:06;;;;;;;6.30;3.05;;;;;;;7.97;82.25;100768.75;5056160;28;20111;-35
2023/04/15 01:13:33;;;;;;;6.35;3.20;;;;;;;8.05;83.73;100780.28;5055758;28;20105;-35
2023/04/15 01:15:59;;;;;;;5.22;3.35;;;;;;;7.93;82.64;100775.59;5055244;28;20021;-35
2023/04/15 01:18:25;;;;;;;6.43;3.20;;;;;;;7.92;82.99;100779.34;5055417;28;20025;-35
2023/04/15 01:20:50;;;;;;;5.93;3.40;;;;;;;7.91;83.67;100774.19;5055721;28;20112;-35
2023/04/15 01:23:16;;;;;;;5.88;3.63;;;;;;;7.90;83.74;100773.31;5054947;28;20479;-35
2023/04/15 01:25:43;;;;;;;9.93;4.28;;;;;;;7.81;84.22;100781.84;5055367;28;20054;-35
2023/04/15 01:28:09;;;;;;;6.82;3.17;;;;;;;7.72;84.09;100770.53;5054970;28;20338;-35
2023/04/15 01:30:35;;;;;;;7.45;3.50;;;;;;;7.68;84.52;100764.75;5055770;28;20048;-35
2023/04/15 01:33:00;;;;;;;5.15;3.00;;;;;;;7.66;85.42;100766.84;5055198;28;20534;-35
2023/04/15 01:35:26;;;;;;;7.27;3.13;;;;;;;7.69;85.22;100770.94;5055158;28;20025;-35
2023/04/15 01:37:53;;;;;;;5.40;3.22;;;;;;;7.63;86.00;100777.19;5054804;28;20369;-35
2023/04/15 01:40:19;;;;;;;5.78;3.20;;;;;;;7.60;85.69;100777.59;5054480;28;20024;-35
2023/04/15 01:42:45;;;;;;;3.53;3.20;;;;;;;7.61;86.06;100773.88;5054678;28;20091;-35
2023/04/15 01:45:12;;;;;;;4.88;3.65;;;;;;;7.56;85.37;100774.50;5054961;28;20430;-35
2023/04/15 01:47:37;;;;;;;5.00;3.58;;;;;;;7.48;85.48;100770.22;5054291;28;20028;-35
2023/04/15 01:50:03;;;;;;;7.18;3.50;;;;;;;7.53;86.36;100776.81;5054610;28;20028;-35
2023/04/15 01:52:28;;;;;;;6.07;4.00;;;;;;;7.49;87.02;100774.53;5054205;28;20056;-35
2023/04/15 01:54:53;;;;;;;7.17;3.20;;;;;;;7.51;86.87;100784.25;5054221;28;20028;-35
2023/04/15 01:57:19;;;;;;;5.83;3.37;;;;;;;7.50;86.67;100778.06;5054487;28;20032;-35
2023/04/15 01:59:44;;;;;;;7.60;3.57;;;;;;;7.42;86.88;100770.25;5054929;28;20021;-35
2023/04/15 02:02:10;;;;;;;4.63;3.45;;;;;;;7.42;86.83;100776.44;5054914;28;20024;-35
2023/04/15 02:04:35;;;;;;;6.33;3.70;;;;;;;7.44;86.80;100773.53;5054053;28;20029;-35
2023/04/15 02:07:00;;;;;;;4.83;3.20;;;;;;;7.27;87.31;100764.25;5054372;28;20025;-35
2023/04/15 02:09:26;;;;;;;6.27;3.80;;;;;;;7.37;88.15;100778.09;5054208;28;20029;-35
2023/04/15 02:11:53;;;;;;;5.63;3.50;;;;;;;7.34;88.22;100783.91;5054763;28;20025;-35
2023/04/15 02:14:18;;;;;;;7.15;4.03;;;;;;;7.20;88.21;100780.41;5053767;28;20110;-35
2023/04/15 02:16:44;;;;;;;5.28;3.58;;;;;;;7.25;88.83;100787.84;5054652;28;20066;-35
2023/04/15 02:19:09;;;;;;;5.72;3.30;;;;;;;7.25;88.38;100780.63;5053743;28;20457;-35
2023/04/15 02:21:34;;;;;;;6.33;4.17;;;;;;;7.20;89.35;100777.72;5053740;28;20023;-35
2023/04/15 02:24:01;;;;;;;7.27;3.37;;;;;;;7.13;89.25;100783.13;5053747;28;20048;-35
2023/04/15 02:26:26;;;;;;;;;;;;;;;7.21;88.84;100792.81;5055242;28;20024;-35
2023/04/15 02:28:51;;;;;;;8.20;3.80;;;;;;;7.08;89.75;100800.94;5054064;28;20347;-35
2023/04/15 02:31:17;;;;;;;7.90;4.30;;;;;;;6.97;90.55;100783.56;5053833;28;20020;-35
2023/04/15 02:33:42;;;;;;;8.25;4.07;;;;;;;6.94;91.39;100800.13;5053488;28;20025;-35
2023/04/15 02:36:09;;;;;;;7.10;3.77;;;;;;;6.87;91.20;100793.91;5053544;28;20112;-35
2023/04/15 02:38:34;;;;;;;;;;;;;;;6.86;91.87;100803.84;5053811;28;20465;-35
2023/04/15 02:40:59;;;;;;;4.85;3.70;;;;;;;6.81;92.06;100798.25;5053913;28;19962;-35
2023/04/15 02:43:25;;;;;;;5.80;3.53;;;;;;;6.79;92.28;100789.59;5053621;28;20025;-35
2023/04/15 02:45:51;;;;;;;6.70;3.63;;;;;;;6.76;93.21;100807.97;5053705;28;20108;-35
2023/04/15 02:48:17;;;;;;;5.07;3.40;;;;;;;6.76;93.02;100795.34;5053348;28;20017;-36
2023/04/15 02:50:43;;;;;;;5.45;3.88;;;;;;;6.83;92.90;100812.31;5053622;28;20063;-35
2023/04/15 02:53:08;;;;;;;6.63;4.20;;;;;;;6.78;94.07;100804.03;5053570;28;20033;-35
2023/04/15 02:55:33;;;;;;;6.57;4.07;;;;;;;6.73;93.40;100803.81;5053629;28;20017;-35
2023/04/15 02:57:59;;;;;;;7.37;3.93;;;;;;;6.76;93.05;100800.72;5053299;28;20024;-35
2023/04/15 03:00:26;;;;;;;6.82;4.32;;;;;;;6.74;93.74;100815.44;5053459;28;20119;-35
2023/04/15 03:02:56;;;;;;;;;;;;;;;6.85;91.48;100822.88;5054690;28;20025;-35
2023/04/15 03:05:24;;;;;;;6.28;3.90;;;;;;;6.82;93.24;100813.34;5053511;28;20268;-35
2023/04/15 03:07:50;;;;;;;5.25;3.70;;;;;;;6.80;93.10;100814.59;5053359;28;20370;-35
2023/04/15 03:10:15;;;;;;;;;;;;;;;6.82;92.34;100824.09;5054426;28;20108;-35
2023/04/15 03:12:41;;;;;;;7.00;4.13;;;;;;;6.56;94.15;100803.41;5053099;28;20376;-35
2023/04/15 03:15:07;;;;;;;4.73;3.60;;;;;;;6.64;94.40;100827.41;5054008;28;20021;-35
2023/04/15 03:17:33;;;;;;;6.90;4.53;;;;;;;6.58;95.99;100822.00;5053290;28;20033;-35
2023/04/15 03:19:58;;;;;;;5.47;4.00;;;;;;;6.61;95.28;100829.66;5053595;28;20025;-35
2023/04/15 03:22:25;;;;;;;6.73;4.00;;;;;;;6.56;95.13;100824.09;5053594;28;20025;-35
2023/04/15 03:24:50;;;;;;;6.40;4.25;;;;;;;6.53;96.59;100835.22;5053335;28;20104;-35
2023/04/15 03:27:16;;;;;;;5.13;4.23;;;;;;;6.52;96.45;100823.66;5053282;28;20120;-35
2023/04/15 03:29:41;;;;;;;5.43;4.43;;;;;;;6.36;96.83;100810.63;5054177;28;20327;-35
2023/04/15 03:32:06;;;;;;;5.60;4.07;;;;;;;6.47;96.96;100836.06;5053281;28;20099;-35
2023/04/15 03:34:32;;;;;;;6.40;4.00;;;;;;;6.48;97.41;100840.38;5053591;28;20075;-35
2023/04/15 03:36:57;;;;;;;5.00;3.83;;;;;;;6.34;96.97;100828.78;5053529;28;20104;-35
2023/04/15 03:39:22;;;;;;;5.80;4.70;;;;;;;6.29;98.38;100839.31;5053402;28;20496;-35
2023/04/15 03:41:48;;;;;;;5.90;4.40;;;;;;;6.31;98.64;100845.31;5052894;28;20052;-35
2023/04/15 03:44:13;;;;;;;5.13;4.30;;;;;;;6.17;99.14;100833.72;5052828;28;20021;-35
2023/04/15 03:46:38;;;;;;;7.83;4.80;;;;;;;6.21;99.06;100848.41;5053908;28;20064;-35
2023/04/15 03:49:06;;;;;;;8.60;4.40;;;;;;;6.25;99.95;100846.16;5056631;28;20082;-35
2023/04/15 03:51:31;;;;;;;4.65;3.88;;;;;;;6.22;99.75;100855.41;5056823;28;20021;-35
2023/04/15 03:53:57;;;;;;;6.63;4.55;;;;;;;6.21;99.37;100861.81;5057016;28;20024;-35
2023/04/15 03:56:23;;;;;;;5.45;4.78;;;;;;;6.23;100.00;100862.44;5057076;28;20149;-35
2023/04/15 03:58:48;;;;;;;7.50;5.35;;;;;;;6.20;100.00;100862.88;5056748;28;20346;-35
2023/04/15 04:01:13;;;;;;;5.10;4.60;;;;;;;6.18;100.00;100859.53;5057130;28;20442;-35
2023/04/15 04:03:39;;;;;;;5.37;4.10;;;;;;;6.15;99.93;100868.00;5057182;28;20358;-35
2023/04/15 04:06:05;;;;;;;6.55;4.50;;;;;;;6.12;100.00;100879.97;5057391;28;20271;-35
2023/04/15 04:08:30;;;;;;;5.38;4.40;;;;;;;6.11;100.00;100885.53;5056811;28;20029;-35
2023/04/15 04:10:55;;;;;;;7.67;5.13;;;;;;;6.09;100.00;100871.47;5056467;28;20033;-35
2023/04/15 04:13:21;;;;;;;6.77;4.50;;;;;;;6.12;100.00;100892.56;5056400;28;20021;-35
2023/04/15 04:15:46;;;;;;;6.27;5.27;;;;;;;5.92;100.00;100852.22;5056982;28;20070;-35
2023/04/15 04:18:11;;;;;;;4.67;4.27;;;;;;;6.11;100.00;100901.66;5056332;28;20031;-35
2023/04/15 04:20:37;;;;;;;6.97;4.70;;;;;;;6.08;100.00;100899.34;5056236;28;20024;-35
2023/04/15 04:23:02;;;;;;;5.53;4.33;;;;;;;6.10;100.00;100905.34;5056300;28;20122;-35
2023/04/15 04:25:27;;;;;;;5.53;4.60;;;;;;;6.03;100.00;100901.81;5057052;28;20337;-35
2023/04/15 04:27:53;;;;;;;6.67;4.77;;;;;;;5.98;100.00;100915.00;5055894;28;20029;-35
2023/04/15 04:30:18;;;;;;;6.47;4.93;;;;;;;5.93;100.00;100900.31;5055854;28;20031;-35
2023/04/15 04:32:44;;;;;;;6.47;4.90;;;;;;;5.94;100.00;100918.06;5056062;28;20021;-35
2023/04/15 04:35:10;;;;;;;6.67;4.93;;;;;;;5.92;100.00;100917.47;5055828;28;20240;-35
2023/04/15 04:37:35;;;;;;;5.50;4.35;;;;;;;5.88;100.00;100923.38;5055978;28;20021;-35
2023/04/15 04:40:01;;;;;;;6.53;5.10;;;;;;;5.88;100.00;100924.22;5056423;28;20450;-35
2023/04/15 04:42:26;;;;;;;5.90;5.13;;;;;;;5.86;100.00;100925.47;5055921;28;20029;-35
2023/04/15 04:44:51;;;;;;;5.50;4.67;;;;;;;5.85;100.00;100929.13;5055871;28;20029;-35
2023/04/15 04:47:17;;;;;;;5.77;5.00;;;;;;;5.83;100.00;100944.63;5055872;28;20033;-35
2023/04/15 04:49:42;;;;;;;7.27;5.07;;;;;;;5.80;100.00;100945.00;5055772;28;20404;-35
2023/04/15 04:52:08;;;;;;;6.97;4.77;;;;;;;5.76;100.00;100949.09;5055644;28;20275;-35
2023/04/15 04:54:33;;;;;;;8.43;5.43;;;;;;;5.71;100.00;100952.41;5056530;28;20086;-35
2023/04/15 04:56:58;;;;;;;6.73;5.23;;;;;;;5.62;100.00;100946.34;5055993;28;20028;-35
2023/04/15 04:59:25;;;;;;;6.35;5.38;;;;;;;5.73;100.00;100952.19;5055159;28;20047;-35
2023/04/15 05:01:50;;;;;;;6.03;5.32;;;;;;;5.67;100.00;100951.13;5056072;28;20094;-35
2023/04/15 05:04:16;;;;;;;6.60;5.30;;;;;;;5.70;100.00;100958.78;5055149;28;20461;-35
2023/04/15 05:06:41;;;;;;;7.13;5.50;;;;;;;5.58;100.00;100944.25;5055531;28;20029;-35
2023/04/15 05:09:06;;;;;;;6.03;5.03;;;;;;;5.69;100.00;100965.16;5055668;28;20476;-35
2023/04/15 05:11:32;;;;;;;6.13;5.50;;;;;;;5.72;100.00;100961.28;5055653;28;20033;-35
2023/04/15 05:13:58;;;;;;;6.57;5.27;;;;;;;5.59;100.00;100940.53;5055297;28;20361;-35
2023/04/15 05:16:24;;;;;;;;;;;;;;;5.77;100.00;100977.63;5056317;28;20626;-35
2023/04/15 05:18:50;;;;;;;7.40;5.07;;;;;;;5.73;100.00;100979.84;5054889;28;20352;-35
2023/04/15 05:21:16;;;;;;;7.20;5.80;;;;;;;5.68;100.00;100976.94;5055378;28;20118;-35
2023/04/15 05:23:41;;;;;;;6.43;5.45;;;;;;;5.81;100.00;100990.44;5055907;28;20017;-35
2023/04/15 05:26:06;;;;;;;6.30;5.50;;;;;;;5.81;100.00;100998.50;5054880;28;20025;-36
2023/04/15 05:28:32;;;;;;;5.87;5.23;;;;;;;5.85;100.00;100996.22;5055074;28;20112;-35
2023/04/15 05:30:57;;;;;;;5.93;5.33;;;;;;;5.82;100.00;100989.41;5055070;28;20052;-35
2023/04/15 05:33:23;;;;;;;5.63;5.07;;;;;;;5.97;100.00;101001.94;5054975;28;20025;-35
2023/04/15 05:35:48;;;;;;;5.40;4.90;;;;;;;5.94;100.00;101013.88;5055728;28;20025;-35
2023/04/15 05:38:13;;;;;;;6.43;4.83;;;;;;;5.89;100.00;101009.06;5054808;28;20465;-35
2023/04/15 05:40:39;;;;;;;6.90;5.07;;;;;;;5.97;100.00;101005.44;5054839;28;20508;-35
2023/04/15 05:43:04;;;;;;;5.80;5.13;;;;;;;5.92;100.00;101003.34;5055259;28;20389;-35
2023/04/15 05:45:29;;;;;;;6.37;5.70;;;;;;;6.02;100.00;101020.97;5054774;28;20100;-35
2023/04/15 05:47:55;;;;;;;5.40;4.83;;;;;;;6.02;100.00;101018.28;5054628;28;20021;-35
2023/04/15 05:50:20;;;;;;;8.73;5.70;;;;;;;5.90;100.00;101016.13;5054630;28;20029;-35
2023/04/15 05:52:46;;;;;;;7.22;5.25;;;;;;;5.86;100.00;101012.16;5054524;28;20055;-35
2023/04/15 05:55:11;;;;;;;5.83;4.73;;;;;;;6.01;100.00;101035.41;5055395;28;20025;-35
2023/04/15 05:57:37;;;;;;;7.00;6.03;;;;;;;6.03;100.00;101036.88;5054456;28;20417;-36
2023/04/15 06:00:04;;;;;;;5.93;5.25;;;;;;;6.01;100.00;101038.09;5054376;28;20049;-36
2023/04/15 06:02:30;;;;;;;5.72;5.13;;;;;;;6.01;100.00;101032.75;5054351;28;20017;-35
2023/04/15 06:04:56;;;;;;;5.93;5.43;;;;;;;6.00;100.00;101044.47;5055161;28;20027;-36
2023/04/15 06:07:22;;;;;;;;;;;;;;;6.11;100.00;101046.63;5054678;28;20021;-35
2023/04/15 06:09:47;;;;;;;7.07;5.22;;;;;;;6.01;100.00;101040.78;5054579;28;20288;-36
2023/04/15 06:12:13;;;;;;;5.40;4.90;;;;;;;6.08;100.00;101047.03;5054210;28;20032;-35
2023/04/15 06:14:39;;;;;;;5.75;5.15;;;;;;;6.21;100.00;101059.72;5052987;28;20028;-35
2023/04/15 06:17:04;;;;;;;;;;;;;;;6.32;100.00;101064.53;5054574;28;20226;-35
2023/04/15 06:19:30;;;;;;;7.72;5.90;;;;;;;6.32;100.00;101070.72;5054311;28;19999;-35
2023/04/15 06:21:57;;;;;;;6.80;5.10;;;;;;;6.40;100.00;101070.56;5054229;28;20063;-36
2023/04/15 06:24:22;;;;;;;5.88;5.28;;;;;;;6.44;100.00;101071.84;5053902;28;20033;-36
2023/04/15 06:26:48;;;;;;;7.35;5.70;;;;;;;6.47;100.00;101073.28;5054815;28;20078;-36
2023/04/15 06:29:13;;;;;;;7.87;5.57;;;;;;;6.49;100.00;101073.94;5054191;28;20338;-36
2023/04/15 06:31:38;;;;;;;11.13;7.23;;;;;;;6.56;100.00;101084.72;5053581;28;20403;-36
2023/04/15 06:34:04;;;;;;;7.80;5.63;;;;;;;6.68;100.00;101086.59;5053499;28;20021;-36
2023/04/15 06:36:29;;;;;;;6.43;5.43;;;;;;;6.71;100.00;101080.03;5053598;28;20255;-36
2023/04/15 06:38:56;;;;;;;7.72;5.78;;;;;;;6.87;100.00;101097.66;5053764;28;20462;-36
2023/04/15 06:41:21;;;;;;;;;;;;;;;6.99;100.00;101103.31;5054729;28;20024;-36
2023/04/15 06:43:47;;;;;;;7.80;5.40;;;;;;;7.02;100.00;101101.03;5054236;28;20003;-36
2023/04/15 06:46:12;;;;;;;6.40;5.68;;;;;;;6.98;100.00;101097.09;5054287;28;20034;-36
2023/04/15 06:48:38;;;;;;;6.50;5.90;;;;;;;7.07;100.00;101112.00;5053642;28;20416;-36
2023/04/15 06:51:03;;;;;;;6.43;5.50;;;;;;;7.17;100.00;101122.38;5054485;28;20043;-36
2023/04/15 06:53:29;;;;;;;8.33;6.23;;;;;;;7.27;100.00;101125.56;5053357;28;20264;-37
2023/04/15 06:55:54;;;;;;;7.07;5.80;;;;;;;7.32;100.00;101133.84;5053561;28;20063;-36
2023/04/15 06:58:20;;;;;;;6.65;6.05;;;;;;;7.20;100.00;101119.31;5054064;28;20267;-37
2023/04/15 07:00:45;;;;;;;6.05;5.45;;;;;;;7.31;100.00;101118.72;5054150;28;20048;-36
2023/04/15 07:03:11;;;;;;;6.10;5.50;;;;;;;7.51;100.00;101142.97;5053542;28;20445;-37
2023/04/15 07:05:37;;;;;;;7.60;6.50;;;;;;;7.49;100.00;101140.50;5053792;28;20061;-36
2023/04/15 07:08:03;;;;;;;7.00;6.30;;;;;;;7.59;100.00;101144.66;5053254;28;20052;-37
2023/04/15 07:10:29;;;;;;;6.85;6.20;;;;;;;7.68;100.00;101154.19;5053451;28;20536;-36
2023/04/15 07:12:55;;;;;;;7.03;6.32;;;;;;;7.73;100.00;101151.72;5053972;28;20025;-37
2023/04/15 07:15:21;;;;;;;;;;;;;;;7.82;100.00;101158.56;5053861;28;20021;-35
2023/04/15 07:17:46;;;;;;;6.55;5.95;;;;;;;7.91;100.00;101153.84;5053064;28;19905;-35
2023/04/15 07:20:12;;;;;;;6.37;5.77;;;;;;;7.97;100.00;101153.81;5054123;28;20025;-34
2023/04/15 07:22:38;;;;;;;6.75;5.95;;;;;;;8.04;100.00;101161.06;5055505;28;20056;-34
2023/04/15 07:25:04;;;;;;;6.68;5.97;;;;;;;8.09;100.00;101167.50;5057915;28;20057;-35
2023/04/15 07:27:30;;;;;;;7.18;5.85;;;;;;;8.17;100.00;101155.69;5057004;28;20024;-35
2023/04/15 07:29:55;;;;;;;9.43;6.35;;;;;;;8.35;100.00;101174.78;5057522;28;20059;-35
2023/04/15 07:32:20;;;;;;;6.17;5.57;;;;;;;8.51;100.00;101179.75;5057557;28;20074;-34
2023/04/15 07:34:46;;;;;;;6.03;5.40;;;;;;;8.54;100.00;101183.06;5056919;28;20285;-35
2023/04/15 07:37:11;;;;;;;7.15;5.90;;;;;;;8.56;99.05;101186.38;5056799;28;20044;-35
2023/04/15 07:39:36;;;;;;;6.30;5.65;;;;;;;8.71;100.00;101193.19;5056979;28;20013;-35
2023/04/15 07:42:03;;;;;;;6.90;5.73;;;;;;;8.79;100.00;101192.16;5057122;28;20024;-35
2023/04/15 07:44:28;;;;;;;8.55;6.05;;;;;;;8.93;99.29;101204.56;5057236;28;20357;-35
2023/04/15 07:46:54;;;;;;;6.43;5.32;;;;;;;8.93;98.30;101198.31;5057122;28;20028;-35
2023/04/15 07:49:20;;;;;;;6.38;5.25;;;;;;;9.08;97.06;101200.78;5056770;28;20029;-35
2023/04/15 07:51:45;;;;;;;6.43;4.67;;;;;;;9.10;96.24;101199.53;5057187;28;20036;-35
2023/04/15 07:54:11;;;;;;;7.25;5.70;;;;;;;9.18;96.48;101203.88;5057264;28;20025;-35
2023/04/15 07:56:36;;;;;;;5.83;5.23;;;;;;;9.25;96.44;101213.59;5056466;28;20028;-35
2023/04/15 07:59:03;;;;;;;6.73;5.07;;;;;;;9.25;95.79;101186.59;5056839;28;20032;-35
2023/04/15 08:01:29;;;;;;;5.50;4.65;;;;;;;9.27;94.72;101216.06;5057082;28;20041;-35
2023/04/15 08:03:55;;;;;;;5.47;4.90;;;;;;;9.29;96.00;101204.03;5056534;28;20017;-35
2023/04/15 08:06:21;;;;;;;;;;;;;;;9.51;94.93;101219.91;5056987;28;20051;-35
2023/04/15 08:08:47;;;;;;;5.43;4.40;;;;;;;9.68;94.13;101220.28;5056182;28;19905;-35
2023/04/15 08:11:12;;;;;;;6.18;4.60;;;;;;;9.69;90.94;101225.44;5057050;28;20123;-35
2023/04/15 08:13:38;;;;;;;5.35;4.32;;;;;;;9.72;89.97;101227.72;5056694;28;20021;-35
2023/04/15 08:16:20;;;;;;;5.13;4.20;;;;;;;9.87;91.56;101224.72;5056729;28;20028;-35
2023/04/15 08:18:47;;;;;;;4.65;3.97;;;;;;;9.93;87.68;101236.53;5055992;28;20512;-35
2023/04/15 08:21:12;;;;;;;5.22;3.88;;;;;;;10.03;87.44;101237.72;5055199;28;20055;-35
2023/04/15 08:23:38;;;;;;;4.85;3.50;;;;;;;10.08;83.45;101242.47;5056298;28;20400;-35
2023/04/15 08:26:04;;;;;;;4.30;3.60;;;;;;;10.20;83.77;101242.59;5056301;28;20024;-35
2023/04/15 08:28:29;;;;;;;4.32;3.63;;;;;;;10.39;84.61;101249.75;5056172;28;20374;-35
2023/04/15 08:30:55;;;;;;;5.40;3.00;;;;;;;10.49;81.74;101250.13;5056140;28;20032;-35
2023/04/15 08:33:20;;;;;;;4.60;2.90;;;;;;;10.51;79.58;101256.13;5055267;28;20106;-35
2023/04/15 08:35:46;;;;;;;3.25;2.90;;;;;;;10.51;79.99;101256.13;5055647;28;20612;-35
2023/04/15 08:38:11;;;;;;;3.88;3.20;;;;;;;10.70;80.67;101269.69;5055623;28;20047;-35
2023/04/15 08:40:42;;;;;;;4.80;3.40;;;;;;;10.77;81.01;101259.63;5055789;28;20017;-35
2023/04/15 08:43:17;;;;;;;3.80;3.22;;;;;;;10.86;80.40;101265.59;5055874;28;20016;-35
2023/04/15 08:45:45;;;;;;;3.95;3.30;;;;;;;10.92;79.04;101273.63;5055544;28;20021;-35
2023/04/15 08:48:15;;;;;;;4.22;3.45;;;;;;;10.91;77.92;101282.00;5055400;28;20020;-35
2023/04/15 08:50:41;;;;;;;5.18;3.47;;;;;;;10.82;76.64;101289.56;5036275;28;20127;-36
2023/04/15 08:53:07;;;;;;;3.60;3.30;;;;;;;10.91;77.09;101290.09;5035611;28;20034;-35
2023/04/15 08:55:35;;;;;;;3.60;3.25;;;;;;;10.96;77.02;101292.97;5035713;28;20343;-36
2023/04/15 08:58:01;;;;;;;4.95;3.53;;;;;;;11.11;75.71;101293.44;5035758;28;20025;-36
2023/04/15 09:00:28;;;;;;;;;;;;;;;11.26;76.64;101306.63;5053339;28;20045;-35
2023/04/15 09:02:55;;;;;;;6.60;4.03;;;;;;;11.20;75.16;101302.09;5055302;28;20328;-35
2023/04/15 09:05:21;;;;;;;4.35;3.10;;;;;;;11.27;75.35;101310.97;5055777;28;20029;-35
2023/04/15 09:07:47;;;;;;;3.90;3.47;;;;;;;11.20;74.55;101319.16;5055545;28;20017;-35
2023/04/15 09:10:13;;;;;;;3.83;3.38;;;;;;;11.16;74.31;101326.09;5055294;28;20488;-35
2023/04/15 09:12:38;;;;;;;3.70;2.95;;;;;;;11.22;74.02;101322.47;5055516;28;20033;-35
2023/04/15 09:15:04;;;;;;;4.05;3.38;;;;;;;11.23;75.22;101317.91;5054978;28;20091;-35
2023/04/15 09:17:33;;;;;;;4.90;3.40;;;;;;;11.27;74.70;101329.94;5055527;28;20021;-35
2023/04/15 09:20:15;;;;;;;3.90;3.10;;;;;;;11.36;75.78;101334.00;5055147;28;20052;-35
2023/04/15 09:22:42;;;;;;;3.15;2.42;;;;;;;11.53;73.55;101335.09;5054886;28;20021;-35
2023/04/15 09:25:28;;;;;;;2.55;1.98;;;;;;;11.48;72.18;101342.22;5055421;28;20035;-35
2023/04/15 09:27:59;;;;;;;2.97;2.03;;;;;;;11.43;72.12;101342.91;5055686;28;20032;-35
2023/04/15 09:30:25;;;;;;;2.40;2.20;;;;;;;11.47;73.62;101354.94;5055096;28;20449;-35
2023/04/15 09:32:57;;;;;;;;;;;;;;;11.65;73.99;101356.00;5055427;28;20078;-35
2023/04/15 09:35:23;;;;;;;3.95;2.25;;;;;;;11.37;71.31;101349.22;5054267;28;20008;-35
2023/04/15 09:37:50;;;;;;;3.38;2.10;;;;;;;11.55;72.13;101368.16;5054421;28;20035;-35
2023/04/15 09:40:40;;;;;;;2.90;2.30;;;;;;;11.68;72.82;101369.09;5054583;28;20027;-35
2023/04/15 09:43:07;;;;;;;3.28;2.40;;;;;;;11.70;71.29;101361.56;5054682;28;20104;-35
2023/04/15 09:45:34;;;;;;;3.83;2.28;;;;;;;11.75;70.87;101373.38;5053542;28;20078;-35
2023/04/15 09:48:26;;;;;;;3.80;2.78;;;;;;;11.86;69.88;101371.84;5054181;28;20104;-35
2023/04/15 09:50:56;;;;;;;3.28;2.40;;;;;;;12.00;70.56;101369.78;5054528;28;20029;-35
2023/04/15 09:53:23;;;;;;;4.90;2.95;;;;;;;12.09;71.26;101365.69;5054317;28;20025;-35
2023/04/15 09:55:50;;;;;;;5.82;2.67;;;;;;;12.22;70.73;101375.56;5054167;28;20024;-35
2023/04/15 09:58:29;;;;;;;4.53;3.00;;;;;;;12.09;72.02;101371.13;5053981;28;20465;-35
2023/04/15 10:00:56;;;;;;;2.72;2.33;;;;;;;12.34;71.08;101384.56;5053979;28;20044;-35
2023/04/15 10:03:24;;;;;;;3.20;2.25;;;;;;;12.28;70.09;101383.59;5053946;28;20033;-35
2023/04/15 10:05:51;;;;;;;2.38;2.08;;;;;;;11.97;69.66;101383.81;5054128;28;20047;-35
2023/04/15 10:08:19;;;;;;;3.35;2.53;;;;;;;11.92;67.85;101387.19;5054167;28;20033;-35
2023/04/15 10:10:46;;;;;;;2.65;2.13;;;;;;;11.84;69.27;101373.94;5053525;28;20102;-35
2023/04/15 10:13:17;;;;;;;3.13;2.08;;;;;;;12.00;68.94;101386.03;5053654;28;20021;-35
2023/04/15 10:15:46;;;;;;;2.75;1.83;;;;;;;11.90;69.19;101391.16;5054024;28;20055;-35
2023/04/15 10:18:15;;;;;;;3.15;1.70;;;;;;;12.03;69.89;101382.88;5054055;28;20051;-35
2023/04/15 10:20:41;;;;;;;4.45;2.28;;;;;;;12.09;68.85;101390.09;5053519;28;20044;-35
2023/04/15 10:23:08;;;;;;;1.80;1.70;;;;;;;12.24;68.47;101398.66;5054161;28;20441;-35
2023/04/15 10:25:34;;;;;;;2.53;1.90;;;;;;;12.26;67.78;101393.03;5053831;28;20033;-35
2023/04/15 10:27:59;;;;;;;3.40;1.65;;;;;;;12.38;69.23;101394.72;5053324;28;20503;-35
2023/04/15 10:30:25;;;;;;;2.45;1.88;;;;;;;12.58;68.96;101393.63;5053015;28;20385;-36
2023/04/15 10:32:51;;;;;;;5.15;1.70;;;;;;;12.81;68.33;101387.44;5053208;28;20044;-36
2023/04/15 10:35:17;;;;;;;2.13;1.63;;;;;;;12.98;66.38;101393.84;5054049;28;20056;-35
2023/04/15 10:37:43;;;;;;;5.38;2.10;;;;;;;12.91;67.82;101400.44;5053472;28;20487;-35
2023/04/15 10:40:27;;;;;;;3.28;1.80;;;;;;;13.11;66.68;101401.75;5054235;28;20020;-35
2023/04/15 10:43:00;;;;;;;1.95;1.40;;;;;;;13.28;64.29;101410.09;5053477;28;20354;-36
2023/04/15 10:45:36;;;;;;;2.17;1.77;;;;;;;13.48;64.87;101401.59;5053563;28;20021;-35
2023/04/15 10:48:05;;;;;;;2.08;1.58;;;;;;;13.74;63.61;101396.72;5053616;28;20087;-35
2023/04/15 10:50:31;;;;;;;2.65;1.63;;;;;;;13.87;62.73;101404.63;5053856;28;20064;-35
2023/04/15 10:52:57;;;;;;;3.30;1.90;;;;;;;13.91;61.54;101406.63;5053460;28;20025;-35
2023/04/15 10:55:30;;;;;;;2.85;1.75;;;;;;;13.73;60.63;101404.06;5053174;28;20036;-35
2023/04/15 10:58:00;;;;;;;2.60;1.70;;;;;;;13.52;62.59;101416.38;5053426;28;20040;-35
2023/04/15 11:00:28;;;;;;;2.05;1.80;;;;;;;13.26;63.55;101405.94;5052894;28;20133;-35
2023/04/15 11:03:07;;;;;;;2.00;1.70;;;;;;;13.12;63.44;101416.16;5053119;28;20548;-35
2023/04/15 11:05:41;;;;;;;2.38;1.75;;;;;;;13.38;64.44;101406.78;5053257;28;20025;-35
2023/04/15 11:08:11;;;;;;;2.40;1.73;;;;;;;13.52;64.01;101424.50;5053120;28;20366;-35
2023/04/15 11:10:36;;;;;;;2.35;1.85;;;;;;;13.68;63.99;101420.25;5053105;28;20029;-36
2023/04/15 11:13:18;;;;;;;2.00;1.80;;;;;;;13.55;63.41;101421.31;5053395;28;20395;-35
2023/04/15 11:15:44;;;;;;;2.38;1.88;;;;;;;13.68;63.68;101422.13;5053673;28;20070;-35
2023/04/15 11:18:13;;;;;;;2.20;1.50;;;;;;;13.80;62.88;101414.78;5053772;28;20041;-35
2023/04/15 11:20:41;;;;;;;2.15;1.83;;;;;;;13.92;66.33;101407.47;5052939;28;20396;-35
2023/04/15 11:23:08;;;;;;;2.25;1.40;;;;;;;13.99;65.10;101419.00;5053204;28;20024;-35
2023/04/15 11:25:36;;;;;;;2.00;1.45;;;;;;;14.05;62.57;101422.66;5053198;28;20024;-35
2023/04/15 11:28:03;;;;;;;2.25;1.40;;;;;;;14.15;62.70;101426.44;5053176;28;20024;-35